sensor_id;sensor_type;location;lat;lon;timestamp;P1;durP1;ratioP1;P2;durP2;ratioP2
18532;SDS011;9396;51.510;11.934;2024-01-30T00:00:50;9.33;;;6.30;;
18532;SDS011;9396;51.510;11.934;2024-01-30T00:03:18;9.17;;;6.00;;
18532;SDS011;9396;51.510;11.934;2024-01-30T00:05:44;8.17;;;6.30;;
18532;SDS011;9396;51.510;11.934;2024-01-30T00:08:13;7.70;;;5.77;;
18532;SDS011;9396;51.510;11.934;2024-01-30T00:10:39;9.00;;;6.47;;
18532;SDS011;9396;51.510;11.934;2024-01-30T00:13:06;10.17;;;5.97;;
18532;SDS011;9396;51.510;11.934;2024-01-30T00:15:32;8.23;;;6.10;;
18532;SDS011;9396;51.510;11.934;2024-01-30T00:17:59;7.53;;;6.07;;
18532;SDS011;9396;51.510;11.934;2024-01-30T00:20:26;8.53;;;5.90;;
18532;SDS011;9396;51.510;11.934;2024-01-30T00:22:53;9.13;;;6.37;;
18532;SDS011;9396;51.510;11.934;2024-01-30T00:25:21;8.40;;;5.53;;
18532;SDS011;9396;51.510;11.934;2024-01-30T00:27:47;8.37;;;5.83;;
18532;SDS011;9396;51.510;11.934;2024-01-30T00:30:14;7.47;;;5.80;;
18532;SDS011;9396;51.510;11.934;2024-01-30T00:32:41;8.10;;;5.83;;
18532;SDS011;9396;51.510;11.934;2024-01-30T00:35:08;9.80;;;5.77;;
18532;SDS011;9396;51.510;11.934;2024-01-30T00:37:36;7.80;;;5.93;;
18532;SDS011;9396;51.510;11.934;2024-01-30T00:40:02;9.50;;;6.23;;
18532;SDS011;9396;51.510;11.934;2024-01-30T00:42:32;9.60;;;6.77;;
18532;SDS011;9396;51.510;11.934;2024-01-30T00:44:59;10.10;;;6.50;;
18532;SDS011;9396;51.510;11.934;2024-01-30T00:47:25;11.67;;;6.70;;
18532;SDS011;9396;51.510;11.934;2024-01-30T00:49:54;13.13;;;6.90;;
18532;SDS011;9396;51.510;11.934;2024-01-30T00:52:20;10.73;;;7.03;;
18532;SDS011;9396;51.510;11.934;2024-01-30T00:54:47;10.97;;;6.93;;
18532;SDS011;9396;51.510;11.934;2024-01-30T00:57:14;11.40;;;6.67;;
18532;SDS011;9396;51.510;11.934;2024-01-30T00:59:42;10.03;;;6.80;;
18532;SDS011;9396;51.510;11.934;2024-01-30T01:02:08;11.47;;;6.73;;
18532;SDS011;9396;51.510;11.934;2024-01-30T01:04:35;9.07;;;6.50;;
18532;SDS011;9396;51.510;11.934;2024-01-30T01:07:02;9.83;;;6.47;;
18532;SDS011;9396;51.510;11.934;2024-01-30T01:09:28;7.17;;;5.90;;
18532;SDS011;9396;51.510;11.934;2024-01-30T01:11:55;9.97;;;6.50;;
18532;SDS011;9396;51.510;11.934;2024-01-30T01:14:21;11.03;;;6.80;;
18532;SDS011;9396;51.510;11.934;2024-01-30T01:16:49;8.93;;;6.10;;
18532;SDS011;9396;51.510;11.934;2024-01-30T01:19:16;6.97;;;5.53;;
18532;SDS011;9396;51.510;11.934;2024-01-30T01:21:43;9.17;;;6.47;;
18532;SDS011;9396;51.510;11.934;2024-01-30T01:24:09;9.73;;;6.53;;
18532;SDS011;9396;51.510;11.934;2024-01-30T01:26:36;11.83;;;6.20;;
18532;SDS011;9396;51.510;11.934;2024-01-30T01:29:02;9.43;;;5.90;;
18532;SDS011;9396;51.510;11.934;2024-01-30T01:31:34;10.03;;;6.03;;
18532;SDS011;9396;51.510;11.934;2024-01-30T01:34:06;8.97;;;6.13;;
18532;SDS011;9396;51.510;11.934;2024-01-30T01:36:33;9.67;;;6.50;;
18532;SDS011;9396;51.510;11.934;2024-01-30T01:38:59;7.87;;;6.00;;
18532;SDS011;9396;51.510;11.934;2024-01-30T01:41:29;9.77;;;5.47;;
18532;SDS011;9396;51.510;11.934;2024-01-30T01:43:56;7.53;;;5.50;;
18532;SDS011;9396;51.510;11.934;2024-01-30T01:46:22;9.13;;;5.60;;
18532;SDS011;9396;51.510;11.934;2024-01-30T01:48:49;6.83;;;5.60;;
18532;SDS011;9396;51.510;11.934;2024-01-30T01:51:17;10.27;;;5.63;;
18532;SDS011;9396;51.510;11.934;2024-01-30T01:53:44;9.05;;;6.30;;
18532;SDS011;9396;51.510;11.934;2024-01-30T01:56:11;6.53;;;5.13;;
18532;SDS011;9396;51.510;11.934;2024-01-30T01:58:38;6.27;;;5.27;;
18532;SDS011;9396;51.510;11.934;2024-01-30T02:01:06;9.10;;;5.50;;
18532;SDS011;9396;51.510;11.934;2024-01-30T02:03:34;8.23;;;5.60;;
18532;SDS011;9396;51.510;11.934;2024-01-30T02:06:01;7.47;;;6.00;;
18532;SDS011;9396;51.510;11.934;2024-01-30T02:08:30;7.53;;;5.30;;
18532;SDS011;9396;51.510;11.934;2024-01-30T02:10:57;9.27;;;6.03;;
18532;SDS011;9396;51.510;11.934;2024-01-30T02:13:23;8.43;;;5.67;;
18532;SDS011;9396;51.510;11.934;2024-01-30T02:15:50;10.30;;;5.70;;
18532;SDS011;9396;51.510;11.934;2024-01-30T02:18:19;7.43;;;6.07;;
18532;SDS011;9396;51.510;11.934;2024-01-30T02:20:46;7.07;;;5.50;;
18532;SDS011;9396;51.510;11.934;2024-01-30T02:23:15;8.57;;;5.67;;
18532;SDS011;9396;51.510;11.934;2024-01-30T02:25:42;10.13;;;6.20;;
18532;SDS011;9396;51.510;11.934;2024-01-30T02:28:10;7.30;;;5.40;;
18532;SDS011;9396;51.510;11.934;2024-01-30T02:30:37;6.87;;;5.37;;
18532;SDS011;9396;51.510;11.934;2024-01-30T02:33:04;8.57;;;5.80;;
18532;SDS011;9396;51.510;11.934;2024-01-30T02:35:30;7.77;;;5.57;;
18532;SDS011;9396;51.510;11.934;2024-01-30T02:37:58;8.57;;;5.67;;
18532;SDS011;9396;51.510;11.934;2024-01-30T02:40:26;7.73;;;5.33;;
18532;SDS011;9396;51.510;11.934;2024-01-30T02:42:53;10.10;;;6.37;;
18532;SDS011;9396;51.510;11.934;2024-01-30T02:45:19;8.33;;;6.43;;
18532;SDS011;9396;51.510;11.934;2024-01-30T02:47:46;8.27;;;5.50;;
18532;SDS011;9396;51.510;11.934;2024-01-30T02:50:13;7.57;;;5.50;;
18532;SDS011;9396;51.510;11.934;2024-01-30T02:52:40;9.60;;;6.03;;
18532;SDS011;9396;51.510;11.934;2024-01-30T02:55:08;9.97;;;6.37;;
18532;SDS011;9396;51.510;11.934;2024-01-30T02:57:37;9.23;;;6.00;;
18532;SDS011;9396;51.510;11.934;2024-01-30T03:00:04;9.80;;;6.23;;
18532;SDS011;9396;51.510;11.934;2024-01-30T03:02:34;7.63;;;5.80;;
18532;SDS011;9396;51.510;11.934;2024-01-30T03:05:01;8.03;;;5.77;;
18532;SDS011;9396;51.510;11.934;2024-01-30T03:07:28;7.70;;;6.00;;
18532;SDS011;9396;51.510;11.934;2024-01-30T03:09:55;9.03;;;5.37;;
18532;SDS011;9396;51.510;11.934;2024-01-30T03:12:22;9.87;;;5.80;;
18532;SDS011;9396;51.510;11.934;2024-01-30T03:14:50;7.17;;;5.30;;
18532;SDS011;9396;51.510;11.934;2024-01-30T03:17:17;8.07;;;6.10;;
18532;SDS011;9396;51.510;11.934;2024-01-30T03:19:44;6.90;;;5.57;;
18532;SDS011;9396;51.510;11.934;2024-01-30T03:22:11;11.37;;;5.83;;
18532;SDS011;9396;51.510;11.934;2024-01-30T03:24:37;7.03;;;5.87;;
18532;SDS011;9396;51.510;11.934;2024-01-30T03:27:04;7.03;;;5.33;;
18532;SDS011;9396;51.510;11.934;2024-01-30T03:29:30;7.73;;;5.70;;
18532;SDS011;9396;51.510;11.934;2024-01-30T03:31:59;9.10;;;5.77;;
18532;SDS011;9396;51.510;11.934;2024-01-30T03:34:26;7.93;;;5.80;;
18532;SDS011;9396;51.510;11.934;2024-01-30T03:36:52;8.97;;;5.70;;
18532;SDS011;9396;51.510;11.934;2024-01-30T03:39:19;8.63;;;5.10;;
18532;SDS011;9396;51.510;11.934;2024-01-30T03:41:45;8.10;;;5.80;;
18532;SDS011;9396;51.510;11.934;2024-01-30T03:44:12;8.03;;;5.90;;
18532;SDS011;9396;51.510;11.934;2024-01-30T03:46:39;7.03;;;4.87;;
18532;SDS011;9396;51.510;11.934;2024-01-30T03:49:07;7.87;;;5.43;;
18532;SDS011;9396;51.510;11.934;2024-01-30T03:51:33;7.50;;;5.33;;
18532;SDS011;9396;51.510;11.934;2024-01-30T03:54:00;9.00;;;5.80;;
18532;SDS011;9396;51.510;11.934;2024-01-30T03:56:27;7.00;;;5.47;;
18532;SDS011;9396;51.510;11.934;2024-01-30T03:58:53;7.83;;;5.23;;
18532;SDS011;9396;51.510;11.934;2024-01-30T04:01:21;8.03;;;5.30;;
18532;SDS011;9396;51.510;11.934;2024-01-30T04:03:47;8.83;;;5.53;;
18532;SDS011;9396;51.510;11.934;2024-01-30T04:06:15;7.37;;;5.17;;
18532;SDS011;9396;51.510;11.934;2024-01-30T04:08:42;7.90;;;5.60;;
18532;SDS011;9396;51.510;11.934;2024-01-30T04:11:09;8.07;;;5.60;;
18532;SDS011;9396;51.510;11.934;2024-01-30T04:13:35;6.77;;;4.97;;
18532;SDS011;9396;51.510;11.934;2024-01-30T04:16:02;7.60;;;5.43;;
18532;SDS011;9396;51.510;11.934;2024-01-30T04:18:29;7.37;;;5.03;;
18532;SDS011;9396;51.510;11.934;2024-01-30T04:20:56;7.43;;;5.87;;
18532;SDS011;9396;51.510;11.934;2024-01-30T04:23:24;8.80;;;5.60;;
18532;SDS011;9396;51.510;11.934;2024-01-30T04:25:50;9.30;;;5.37;;
18532;SDS011;9396;51.510;11.934;2024-01-30T04:28:17;9.93;;;5.90;;
18532;SDS011;9396;51.510;11.934;2024-01-30T04:30:43;8.27;;;5.60;;
18532;SDS011;9396;51.510;11.934;2024-01-30T04:33:10;10.00;;;5.70;;
18532;SDS011;9396;51.510;11.934;2024-01-30T04:35:37;8.53;;;5.47;;
18532;SDS011;9396;51.510;11.934;2024-01-30T04:38:04;8.00;;;5.77;;
18532;SDS011;9396;51.510;11.934;2024-01-30T04:40:32;7.33;;;5.33;;
18532;SDS011;9396;51.510;11.934;2024-01-30T04:42:58;6.83;;;5.17;;
18532;SDS011;9396;51.510;11.934;2024-01-30T04:45:25;7.47;;;5.27;;
18532;SDS011;9396;51.510;11.934;2024-01-30T04:47:54;8.27;;;5.60;;
18532;SDS011;9396;51.510;11.934;2024-01-30T04:50:21;9.27;;;5.67;;
18532;SDS011;9396;51.510;11.934;2024-01-30T04:52:48;8.60;;;5.73;;
18532;SDS011;9396;51.510;11.934;2024-01-30T04:55:14;9.37;;;5.97;;
18532;SDS011;9396;51.510;11.934;2024-01-30T04:57:42;9.07;;;5.73;;
18532;SDS011;9396;51.510;11.934;2024-01-30T05:00:09;10.10;;;6.10;;
18532;SDS011;9396;51.510;11.934;2024-01-30T05:02:36;8.93;;;5.63;;
18532;SDS011;9396;51.510;11.934;2024-01-30T05:05:03;13.17;;;6.00;;
18532;SDS011;9396;51.510;11.934;2024-01-30T05:07:30;9.43;;;5.50;;
18532;SDS011;9396;51.510;11.934;2024-01-30T05:09:57;8.47;;;5.33;;
18532;SDS011;9396;51.510;11.934;2024-01-30T05:12:24;8.73;;;5.73;;
18532;SDS011;9396;51.510;11.934;2024-01-30T05:14:52;11.17;;;5.33;;
18532;SDS011;9396;51.510;11.934;2024-01-30T05:17:18;7.20;;;5.13;;
18532;SDS011;9396;51.510;11.934;2024-01-30T05:19:45;8.33;;;5.53;;
18532;SDS011;9396;51.510;11.934;2024-01-30T05:22:12;9.10;;;5.13;;
18532;SDS011;9396;51.510;11.934;2024-01-30T05:24:40;9.23;;;5.23;;
18532;SDS011;9396;51.510;11.934;2024-01-30T05:27:07;6.80;;;5.03;;
18532;SDS011;9396;51.510;11.934;2024-01-30T05:29:33;10.27;;;5.33;;
18532;SDS011;9396;51.510;11.934;2024-01-30T05:32:01;7.60;;;5.37;;
18532;SDS011;9396;51.510;11.934;2024-01-30T05:34:28;10.53;;;5.80;;
18532;SDS011;9396;51.510;11.934;2024-01-30T05:36:55;7.63;;;5.23;;
18532;SDS011;9396;51.510;11.934;2024-01-30T05:39:21;7.90;;;5.40;;
18532;SDS011;9396;51.510;11.934;2024-01-30T05:41:48;7.50;;;5.13;;
18532;SDS011;9396;51.510;11.934;2024-01-30T05:44:15;10.43;;;5.33;;
18532;SDS011;9396;51.510;11.934;2024-01-30T05:46:41;7.87;;;5.43;;
18532;SDS011;9396;51.510;11.934;2024-01-30T05:49:09;8.27;;;5.33;;
18532;SDS011;9396;51.510;11.934;2024-01-30T05:51:36;7.50;;;5.17;;
18532;SDS011;9396;51.510;11.934;2024-01-30T05:54:03;11.50;;;5.93;;
18532;SDS011;9396;51.510;11.934;2024-01-30T05:56:29;9.43;;;5.30;;
18532;SDS011;9396;51.510;11.934;2024-01-30T05:58:56;6.33;;;4.80;;
18532;SDS011;9396;51.510;11.934;2024-01-30T06:01:23;10.13;;;5.37;;
18532;SDS011;9396;51.510;11.934;2024-01-30T06:03:49;8.27;;;5.50;;
18532;SDS011;9396;51.510;11.934;2024-01-30T06:06:17;7.60;;;5.30;;
18532;SDS011;9396;51.510;11.934;2024-01-30T06:08:44;8.17;;;5.93;;
18532;SDS011;9396;51.510;11.934;2024-01-30T06:11:11;7.67;;;5.93;;
18532;SDS011;9396;51.510;11.934;2024-01-30T06:13:37;7.07;;;5.23;;
18532;SDS011;9396;51.510;11.934;2024-01-30T06:16:04;7.97;;;5.40;;
18532;SDS011;9396;51.510;11.934;2024-01-30T06:18:31;12.73;;;5.60;;
18532;SDS011;9396;51.510;11.934;2024-01-30T06:20:58;8.87;;;5.30;;
18532;SDS011;9396;51.510;11.934;2024-01-30T06:23:26;6.37;;;5.20;;
18532;SDS011;9396;51.510;11.934;2024-01-30T06:25:52;8.57;;;5.20;;
18532;SDS011;9396;51.510;11.934;2024-01-30T06:28:19;7.27;;;5.27;;
18532;SDS011;9396;51.510;11.934;2024-01-30T06:30:46;11.40;;;5.20;;
18532;SDS011;9396;51.510;11.934;2024-01-30T06:33:12;8.73;;;5.10;;
18532;SDS011;9396;51.510;11.934;2024-01-30T06:35:40;7.33;;;5.03;;
18532;SDS011;9396;51.510;11.934;2024-01-30T06:38:07;7.93;;;5.43;;
18532;SDS011;9396;51.510;11.934;2024-01-30T06:40:35;8.00;;;5.30;;
18532;SDS011;9396;51.510;11.934;2024-01-30T06:43:02;8.60;;;5.17;;
18532;SDS011;9396;51.510;11.934;2024-01-30T06:45:30;6.40;;;4.97;;
18532;SDS011;9396;51.510;11.934;2024-01-30T06:47:57;8.97;;;4.93;;
18532;SDS011;9396;51.510;11.934;2024-01-30T06:50:23;7.23;;;4.97;;
18532;SDS011;9396;51.510;11.934;2024-01-30T06:52:50;7.50;;;5.20;;
18532;SDS011;9396;51.510;11.934;2024-01-30T06:55:17;5.90;;;4.50;;
18532;SDS011;9396;51.510;11.934;2024-01-30T06:57:45;8.07;;;4.93;;
18532;SDS011;9396;51.510;11.934;2024-01-30T07:00:12;9.53;;;5.63;;
18532;SDS011;9396;51.510;11.934;2024-01-30T07:02:40;8.07;;;5.43;;
18532;SDS011;9396;51.510;11.934;2024-01-30T07:05:07;9.13;;;5.47;;
18532;SDS011;9396;51.510;11.934;2024-01-30T07:07:34;7.90;;;5.37;;
18532;SDS011;9396;51.510;11.934;2024-01-30T07:10:00;7.67;;;6.00;;
18532;SDS011;9396;51.510;11.934;2024-01-30T07:12:27;6.33;;;4.47;;
18532;SDS011;9396;51.510;11.934;2024-01-30T07:14:55;9.00;;;5.63;;
18532;SDS011;9396;51.510;11.934;2024-01-30T07:17:24;10.83;;;4.97;;
18532;SDS011;9396;51.510;11.934;2024-01-30T07:19:51;7.23;;;4.90;;
18532;SDS011;9396;51.510;11.934;2024-01-30T07:22:18;8.30;;;5.50;;
18532;SDS011;9396;51.510;11.934;2024-01-30T07:24:44;8.83;;;5.37;;
18532;SDS011;9396;51.510;11.934;2024-01-30T07:27:13;9.33;;;5.77;;
18532;SDS011;9396;51.510;11.934;2024-01-30T07:29:42;7.17;;;5.60;;
18532;SDS011;9396;51.510;11.934;2024-01-30T07:32:10;8.93;;;5.20;;
18532;SDS011;9396;51.510;11.934;2024-01-30T07:34:37;8.20;;;5.63;;
18532;SDS011;9396;51.510;11.934;2024-01-30T07:37:03;8.33;;;5.40;;
18532;SDS011;9396;51.510;11.934;2024-01-30T07:39:30;8.17;;;5.83;;
18532;SDS011;9396;51.510;11.934;2024-01-30T07:41:57;12.33;;;5.73;;
18532;SDS011;9396;51.510;11.934;2024-01-30T07:44:24;8.33;;;5.73;;
18532;SDS011;9396;51.510;11.934;2024-01-30T07:46:51;10.33;;;6.03;;
18532;SDS011;9396;51.510;11.934;2024-01-30T07:49:19;7.63;;;5.60;;
18532;SDS011;9396;51.510;11.934;2024-01-30T07:51:45;9.90;;;5.37;;
18532;SDS011;9396;51.510;11.934;2024-01-30T07:54:12;8.00;;;5.43;;
18532;SDS011;9396;51.510;11.934;2024-01-30T07:56:41;10.20;;;5.53;;
18532;SDS011;9396;51.510;11.934;2024-01-30T07:59:09;9.27;;;5.47;;
18532;SDS011;9396;51.510;11.934;2024-01-30T08:01:36;7.40;;;5.10;;
18532;SDS011;9396;51.510;11.934;2024-01-30T08:04:03;9.33;;;6.13;;
18532;SDS011;9396;51.510;11.934;2024-01-30T08:06:31;8.40;;;5.67;;
18532;SDS011;9396;51.510;11.934;2024-01-30T08:08:58;8.50;;;6.87;;
18532;SDS011;9396;51.510;11.934;2024-01-30T08:11:24;6.57;;;5.30;;
18532;SDS011;9396;51.510;11.934;2024-01-30T08:13:52;7.63;;;5.90;;
18532;SDS011;9396;51.510;11.934;2024-01-30T08:16:19;8.50;;;6.10;;
18532;SDS011;9396;51.510;11.934;2024-01-30T08:18:45;10.57;;;6.30;;
18532;SDS011;9396;51.510;11.934;2024-01-30T08:21:12;10.33;;;6.30;;
18532;SDS011;9396;51.510;11.934;2024-01-30T08:23:40;8.00;;;6.10;;
18532;SDS011;9396;51.510;11.934;2024-01-30T08:26:07;12.73;;;5.97;;
18532;SDS011;9396;51.510;11.934;2024-01-30T08:28:33;6.97;;;5.53;;
18532;SDS011;9396;51.510;11.934;2024-01-30T08:31:00;10.00;;;5.50;;
18532;SDS011;9396;51.510;11.934;2024-01-30T08:33:27;7.50;;;5.70;;
18532;SDS011;9396;51.510;11.934;2024-01-30T08:35:53;7.53;;;5.40;;
18532;SDS011;9396;51.510;11.934;2024-01-30T08:38:20;6.70;;;5.37;;
18532;SDS011;9396;51.510;11.934;2024-01-30T08:40:48;9.03;;;6.07;;
18532;SDS011;9396;51.510;11.934;2024-01-30T08:43:14;11.07;;;5.83;;
18532;SDS011;9396;51.510;11.934;2024-01-30T08:45:41;7.77;;;5.40;;
18532;SDS011;9396;51.510;11.934;2024-01-30T08:48:08;11.33;;;6.00;;
18532;SDS011;9396;51.510;11.934;2024-01-30T08:50:35;10.00;;;6.17;;
18532;SDS011;9396;51.510;11.934;2024-01-30T08:53:01;10.57;;;6.00;;
18532;SDS011;9396;51.510;11.934;2024-01-30T08:55:28;13.90;;;6.90;;
18532;SDS011;9396;51.510;11.934;2024-01-30T08:57:56;12.37;;;6.20;;
18532;SDS011;9396;51.510;11.934;2024-01-30T09:00:22;9.90;;;6.07;;
18532;SDS011;9396;51.510;11.934;2024-01-30T09:02:49;12.17;;;5.63;;
18532;SDS011;9396;51.510;11.934;2024-01-30T09:05:16;9.40;;;5.43;;
18532;SDS011;9396;51.510;11.934;2024-01-30T09:07:42;11.03;;;5.33;;
18532;SDS011;9396;51.510;11.934;2024-01-30T09:10:09;9.40;;;5.60;;
18532;SDS011;9396;51.510;11.934;2024-01-30T09:12:36;8.23;;;4.97;;
18532;SDS011;9396;51.510;11.934;2024-01-30T09:15:04;8.27;;;5.47;;
18532;SDS011;9396;51.510;11.934;2024-01-30T09:17:31;8.27;;;5.30;;
18532;SDS011;9396;51.510;11.934;2024-01-30T09:19:58;8.23;;;5.03;;
18532;SDS011;9396;51.510;11.934;2024-01-30T09:22:25;5.87;;;4.50;;
18532;SDS011;9396;51.510;11.934;2024-01-30T09:24:52;7.53;;;4.33;;
18532;SDS011;9396;51.510;11.934;2024-01-30T09:27:19;6.40;;;4.23;;
18532;SDS011;9396;51.510;11.934;2024-01-30T09:29:45;6.90;;;4.43;;
18532;SDS011;9396;51.510;11.934;2024-01-30T09:32:13;6.53;;;4.37;;
18532;SDS011;9396;51.510;11.934;2024-01-30T09:34:40;8.40;;;4.60;;
18532;SDS011;9396;51.510;11.934;2024-01-30T09:37:07;6.17;;;4.40;;
18532;SDS011;9396;51.510;11.934;2024-01-30T09:39:33;8.33;;;4.30;;
18532;SDS011;9396;51.510;11.934;2024-01-30T09:42:01;5.73;;;4.33;;
18532;SDS011;9396;51.510;11.934;2024-01-30T09:44:31;6.33;;;4.30;;
18532;SDS011;9396;51.510;11.934;2024-01-30T09:47:02;7.20;;;4.37;;
18532;SDS011;9396;51.510;11.934;2024-01-30T09:49:32;5.27;;;4.10;;
18532;SDS011;9396;51.510;11.934;2024-01-30T09:52:00;7.53;;;4.77;;
18532;SDS011;9396;51.510;11.934;2024-01-30T09:54:28;7.83;;;4.60;;
18532;SDS011;9396;51.510;11.934;2024-01-30T09:56:56;9.67;;;4.60;;
18532;SDS011;9396;51.510;11.934;2024-01-30T09:59:23;7.27;;;4.67;;
18532;SDS011;9396;51.510;11.934;2024-01-30T10:01:50;11.97;;;4.60;;
18532;SDS011;9396;51.510;11.934;2024-01-30T10:04:17;7.73;;;5.50;;
18532;SDS011;9396;51.510;11.934;2024-01-30T10:06:45;5.53;;;4.03;;
18532;SDS011;9396;51.510;11.934;2024-01-30T10:09:13;9.10;;;4.73;;
18532;SDS011;9396;51.510;11.934;2024-01-30T10:11:40;8.37;;;4.47;;
18532;SDS011;9396;51.510;11.934;2024-01-30T10:14:06;7.67;;;4.63;;
18532;SDS011;9396;51.510;11.934;2024-01-30T10:16:34;8.97;;;4.73;;
18532;SDS011;9396;51.510;11.934;2024-01-30T10:19:01;5.97;;;4.50;;
18532;SDS011;9396;51.510;11.934;2024-01-30T10:21:28;6.17;;;4.07;;
18532;SDS011;9396;51.510;11.934;2024-01-30T10:23:57;6.87;;;4.27;;
18532;SDS011;9396;51.510;11.934;2024-01-30T10:26:24;7.43;;;4.67;;
18532;SDS011;9396;51.510;11.934;2024-01-30T10:28:50;6.43;;;4.63;;
18532;SDS011;9396;51.510;11.934;2024-01-30T10:31:17;8.77;;;5.17;;
18532;SDS011;9396;51.510;11.934;2024-01-30T10:33:44;12.67;;;5.00;;
18532;SDS011;9396;51.510;11.934;2024-01-30T10:36:13;7.40;;;4.80;;
18532;SDS011;9396;51.510;11.934;2024-01-30T10:38:41;6.40;;;4.30;;
18532;SDS011;9396;51.510;11.934;2024-01-30T10:41:13;6.97;;;4.50;;
18532;SDS011;9396;51.510;11.934;2024-01-30T10:43:46;7.03;;;4.40;;
18532;SDS011;9396;51.510;11.934;2024-01-30T10:46:18;9.00;;;4.60;;
18532;SDS011;9396;51.510;11.934;2024-01-30T10:48:46;7.30;;;4.30;;
18532;SDS011;9396;51.510;11.934;2024-01-30T10:51:17;5.50;;;3.97;;
18532;SDS011;9396;51.510;11.934;2024-01-30T10:53:46;6.80;;;4.33;;
18532;SDS011;9396;51.510;11.934;2024-01-30T10:56:17;6.97;;;4.53;;
18532;SDS011;9396;51.510;11.934;2024-01-30T10:58:46;7.60;;;4.97;;
18532;SDS011;9396;51.510;11.934;2024-01-30T11:01:14;7.30;;;4.73;;
18532;SDS011;9396;51.510;11.934;2024-01-30T11:03:41;5.77;;;4.53;;
18532;SDS011;9396;51.510;11.934;2024-01-30T11:06:10;6.90;;;4.03;;
18532;SDS011;9396;51.510;11.934;2024-01-30T11:08:39;7.53;;;4.30;;
18532;SDS011;9396;51.510;11.934;2024-01-30T11:11:08;6.77;;;4.27;;
18532;SDS011;9396;51.510;11.934;2024-01-30T11:13:37;7.77;;;4.73;;
18532;SDS011;9396;51.510;11.934;2024-01-30T11:16:04;7.93;;;4.27;;
18532;SDS011;9396;51.510;11.934;2024-01-30T11:18:32;6.40;;;3.63;;
18532;SDS011;9396;51.510;11.934;2024-01-30T11:20:59;7.03;;;4.33;;
18532;SDS011;9396;51.510;11.934;2024-01-30T11:23:27;7.40;;;4.63;;
18532;SDS011;9396;51.510;11.934;2024-01-30T11:25:54;5.33;;;4.40;;
18532;SDS011;9396;51.510;11.934;2024-01-30T11:28:22;9.37;;;5.30;;
18532;SDS011;9396;51.510;11.934;2024-01-30T11:30:50;8.07;;;4.30;;
18532;SDS011;9396;51.510;11.934;2024-01-30T11:33:27;6.27;;;4.20;;
18532;SDS011;9396;51.510;11.934;2024-01-30T11:35:56;8.10;;;4.67;;
18532;SDS011;9396;51.510;11.934;2024-01-30T11:38:24;9.73;;;4.70;;
18532;SDS011;9396;51.510;11.934;2024-01-30T11:40:52;5.80;;;4.20;;
18532;SDS011;9396;51.510;11.934;2024-01-30T11:43:20;10.67;;;4.40;;
18532;SDS011;9396;51.510;11.934;2024-01-30T11:45:47;5.17;;;4.13;;
18532;SDS011;9396;51.510;11.934;2024-01-30T11:48:15;8.80;;;4.93;;
18532;SDS011;9396;51.510;11.934;2024-01-30T11:50:41;8.10;;;4.60;;
18532;SDS011;9396;51.510;11.934;2024-01-30T11:53:10;5.60;;;4.20;;
18532;SDS011;9396;51.510;11.934;2024-01-30T11:55:37;6.93;;;4.77;;
18532;SDS011;9396;51.510;11.934;2024-01-30T11:58:04;5.37;;;3.77;;
18532;SDS011;9396;51.510;11.934;2024-01-30T12:00:31;6.00;;;4.57;;
18532;SDS011;9396;51.510;11.934;2024-01-30T12:02:58;9.80;;;4.50;;
18532;SDS011;9396;51.510;11.934;2024-01-30T12:05:27;5.87;;;4.40;;
18532;SDS011;9396;51.510;11.934;2024-01-30T12:07:54;7.77;;;4.67;;
18532;SDS011;9396;51.510;11.934;2024-01-30T12:10:23;8.00;;;4.80;;
18532;SDS011;9396;51.510;11.934;2024-01-30T12:12:50;7.70;;;5.23;;
18532;SDS011;9396;51.510;11.934;2024-01-30T12:15:18;6.23;;;4.77;;
18532;SDS011;9396;51.510;11.934;2024-01-30T12:17:47;7.50;;;4.30;;
18532;SDS011;9396;51.510;11.934;2024-01-30T12:20:14;5.90;;;4.37;;
18532;SDS011;9396;51.510;11.934;2024-01-30T12:22:46;6.87;;;4.43;;
18532;SDS011;9396;51.510;11.934;2024-01-30T12:25:14;5.50;;;3.80;;
18532;SDS011;9396;51.510;11.934;2024-01-30T12:27:42;6.37;;;4.73;;
18532;SDS011;9396;51.510;11.934;2024-01-30T12:30:10;10.17;;;4.60;;
18532;SDS011;9396;51.510;11.934;2024-01-30T12:32:40;6.97;;;4.60;;
18532;SDS011;9396;51.510;11.934;2024-01-30T12:35:09;9.43;;;4.73;;
18532;SDS011;9396;51.510;11.934;2024-01-30T12:37:36;8.30;;;4.60;;
18532;SDS011;9396;51.510;11.934;2024-01-30T12:40:05;6.37;;;4.33;;
18532;SDS011;9396;51.510;11.934;2024-01-30T12:42:32;6.77;;;4.33;;
18532;SDS011;9396;51.510;11.934;2024-01-30T12:44:59;7.20;;;4.33;;
18532;SDS011;9396;51.510;11.934;2024-01-30T12:47:26;8.73;;;4.50;;
18532;SDS011;9396;51.510;11.934;2024-01-30T12:49:52;7.67;;;4.63;;
18532;SDS011;9396;51.510;11.934;2024-01-30T12:52:20;11.10;;;4.90;;
18532;SDS011;9396;51.510;11.934;2024-01-30T12:54:47;7.83;;;4.33;;
18532;SDS011;9396;51.510;11.934;2024-01-30T12:57:15;7.43;;;5.00;;
18532;SDS011;9396;51.510;11.934;2024-01-30T12:59:42;8.20;;;4.43;;
18532;SDS011;9396;51.510;11.934;2024-01-30T13:02:09;9.43;;;4.93;;
18532;SDS011;9396;51.510;11.934;2024-01-30T13:04:36;7.20;;;4.70;;
18532;SDS011;9396;51.510;11.934;2024-01-30T13:07:03;10.30;;;5.10;;
18532;SDS011;9396;51.510;11.934;2024-01-30T13:09:30;8.97;;;4.97;;
18532;SDS011;9396;51.510;11.934;2024-01-30T13:11:57;8.50;;;4.80;;
18532;SDS011;9396;51.510;11.934;2024-01-30T13:14:25;8.20;;;4.70;;
18532;SDS011;9396;51.510;11.934;2024-01-30T13:16:52;8.17;;;4.80;;
18532;SDS011;9396;51.510;11.934;2024-01-30T13:19:18;10.63;;;4.53;;
18532;SDS011;9396;51.510;11.934;2024-01-30T13:21:45;7.60;;;4.43;;
18532;SDS011;9396;51.510;11.934;2024-01-30T13:24:12;7.63;;;4.17;;
18532;SDS011;9396;51.510;11.934;2024-01-30T13:26:39;6.70;;;4.60;;
18532;SDS011;9396;51.510;11.934;2024-01-30T13:29:06;9.30;;;4.77;;
18532;SDS011;9396;51.510;11.934;2024-01-30T13:31:35;6.37;;;4.53;;
18532;SDS011;9396;51.510;11.934;2024-01-30T13:34:01;8.97;;;5.03;;
18532;SDS011;9396;51.510;11.934;2024-01-30T13:36:28;8.60;;;4.77;;
18532;SDS011;9396;51.510;11.934;2024-01-30T13:38:55;11.83;;;5.57;;
18532;SDS011;9396;51.510;11.934;2024-01-30T13:41:21;8.70;;;4.97;;
18532;SDS011;9396;51.510;11.934;2024-01-30T13:43:48;8.17;;;4.83;;
18532;SDS011;9396;51.510;11.934;2024-01-30T13:46:15;7.77;;;4.57;;
18532;SDS011;9396;51.510;11.934;2024-01-30T13:48:43;7.30;;;4.77;;
18532;SDS011;9396;51.510;11.934;2024-01-30T13:51:10;14.10;;;5.40;;
18532;SDS011;9396;51.510;11.934;2024-01-30T13:53:38;6.43;;;4.80;;
18532;SDS011;9396;51.510;11.934;2024-01-30T13:56:04;8.53;;;5.20;;
18532;SDS011;9396;51.510;11.934;2024-01-30T13:58:32;9.27;;;5.10;;
18532;SDS011;9396;51.510;11.934;2024-01-30T14:01:01;8.00;;;4.90;;
18532;SDS011;9396;51.510;11.934;2024-01-30T14:03:27;7.77;;;4.80;;
18532;SDS011;9396;51.510;11.934;2024-01-30T14:05:55;10.27;;;5.10;;
18532;SDS011;9396;51.510;11.934;2024-01-30T14:08:22;8.27;;;5.13;;
18532;SDS011;9396;51.510;11.934;2024-01-30T14:10:53;7.37;;;5.13;;
18532;SDS011;9396;51.510;11.934;2024-01-30T14:13:19;8.87;;;5.60;;
18532;SDS011;9396;51.510;11.934;2024-01-30T14:15:47;8.73;;;5.17;;
18532;SDS011;9396;51.510;11.934;2024-01-30T14:18:14;12.40;;;5.57;;
18532;SDS011;9396;51.510;11.934;2024-01-30T14:20:41;7.80;;;4.80;;
18532;SDS011;9396;51.510;11.934;2024-01-30T14:23:09;8.90;;;5.43;;
18532;SDS011;9396;51.510;11.934;2024-01-30T14:25:36;6.83;;;4.77;;
18532;SDS011;9396;51.510;11.934;2024-01-30T14:28:03;8.57;;;5.03;;
18532;SDS011;9396;51.510;11.934;2024-01-30T14:30:29;8.97;;;5.30;;
18532;SDS011;9396;51.510;11.934;2024-01-30T14:32:56;8.67;;;5.30;;
18532;SDS011;9396;51.510;11.934;2024-01-30T14:35:23;8.13;;;5.37;;
18532;SDS011;9396;51.510;11.934;2024-01-30T14:37:49;8.43;;;5.10;;
18532;SDS011;9396;51.510;11.934;2024-01-30T14:40:18;8.07;;;5.20;;
18532;SDS011;9396;51.510;11.934;2024-01-30T14:42:45;7.13;;;5.30;;
18532;SDS011;9396;51.510;11.934;2024-01-30T14:45:12;6.97;;;5.10;;